Time;durP1;ratioP1;P1;durP2;ratioP2;P2;SDS_P1;SDS_P2;PMS_P1;PMS_P2;Temp;Humidity;BMP_temperature;BMP_pressure;BME280_temperature;BME280_humidity;BME280_pressure;Samples;Min_cycle;Max_cycle;Signal;HPM_P1;HPM_P2
2020/12/17 00:02:03;;;;;;;83.90;53.00;;;;;;;;;;4377610;32;20678;-60
2020/12/17 00:04:28;;;;;;;94.07;57.13;;;;;;;;;;4381786;32;20251;-60
2020/12/17 00:06:55;;;;;;;77.60;49.87;;;;;;;;;;4375184;32;20297;-60
2020/12/17 00:09:21;;;;;;;76.10;47.30;;;;;;;;;;4372863;32;20249;-60
2020/12/17 00:11:47;;;;;;;76.10;48.17;;;;;;;;;;4377567;32;20221;-60
2020/12/17 00:14:13;;;;;;;63.93;39.20;;;;;;;;;;4381460;32;20226;-60
2020/12/17 00:16:39;;;;;;;61.53;39.30;;;;;;;;;;4377117;32;20674;-60
2020/12/17 00:19:08;;;;;;;55.50;37.33;;;;;;;;;;4376493;32;20309;-60
2020/12/17 00:21:34;;;;;;;54.90;34.53;;;;;;;;;;4377125;32;20210;-60
2020/12/17 00:24:00;;;;;;;61.10;34.90;;;;;;;;;;4377364;32;20315;-60
2020/12/17 00:26:26;;;;;;;58.80;35.47;;;;;;;;;;4376104;32;20214;-60
2020/12/17 00:28:52;;;;;;;54.23;33.37;;;;;;;;;;4382060;32;20226;-59
2020/12/17 00:31:19;;;;;;;71.17;36.93;;;;;;;;;;4367311;32;20297;-59
2020/12/17 00:33:45;;;;;;;62.33;36.20;;;;;;;;;;4381743;32;20360;-59
2020/12/17 00:36:11;;;;;;;58.80;34.43;;;;;;;;;;4378502;32;20280;-59
2020/12/17 00:38:37;;;;;;;67.03;40.03;;;;;;;;;;4375676;32;20206;-59
2020/12/17 00:41:02;;;;;;;71.87;39.47;;;;;;;;;;4378986;32;20263;-59
2020/12/17 00:43:28;;;;;;;68.33;37.53;;;;;;;;;;4382805;32;20791;-59
2020/12/17 00:45:54;;;;;;;60.77;35.07;;;;;;;;;;4384059;32;20261;-59
2020/12/17 00:48:19;;;;;;;55.23;33.97;;;;;;;;;;4375963;32;20311;-60
2020/12/17 00:50:45;;;;;;;52.83;34.27;;;;;;;;;;4373831;32;20214;-60
2020/12/17 00:53:10;;;;;;;54.73;32.30;;;;;;;;;;4370466;32;20313;-60
2020/12/17 00:55:35;;;;;;;63.70;34.53;;;;;;;;;;4375375;32;20672;-60
2020/12/17 00:58:01;;;;;;;61.03;37.40;;;;;;;;;;4373359;32;20246;-60
2020/12/17 01:00:26;;;;;;;65.73;37.37;;;;;;;;;;4378089;32;20725;-59
2020/12/17 01:02:52;;;;;;;59.07;36.70;;;;;;;;;;4379087;32;20256;-60
2020/12/17 01:05:17;;;;;;;63.00;35.73;;;;;;;;;;4375460;32;20261;-60
2020/12/17 01:07:42;;;;;;;65.70;34.23;;;;;;;;;;4373003;32;20298;-61
2020/12/17 01:10:08;;;;;;;69.77;35.47;;;;;;;;;;4378249;32;20631;-61
2020/12/17 01:12:33;;;;;;;56.93;33.30;;;;;;;;;;4379196;32;20683;-60
2020/12/17 01:14:59;;;;;;;62.90;33.93;;;;;;;;;;4375908;32;20605;-61
2020/12/17 01:17:24;;;;;;;80.93;38.37;;;;;;;;;;4374858;32;20331;-61
2020/12/17 01:19:50;;;;;;;69.97;30.63;;;;;;;;;;4372094;32;20290;-61
2020/12/17 01:22:15;;;;;;;44.70;26.93;;;;;;;;;;4378200;32;20372;-61
2020/12/17 01:24:42;;;;;;;46.67;27.97;;;;;;;;;;4378935;32;20254;-61
2020/12/17 01:27:07;;;;;;;51.30;31.33;;;;;;;;;;4383676;32;20240;-61
2020/12/17 01:29:32;;;;;;;50.83;30.93;;;;;;;;;;4377790;32;20249;-61
2020/12/17 01:31:59;;;;;;;49.30;33.27;;;;;;;;;;4376610;32;20286;-61
2020/12/17 01:34:24;;;;;;;46.77;30.03;;;;;;;;;;4358815;32;20430;-61
2020/12/17 01:36:51;;;;;;;49.97;29.47;;;;;;;;;;4373789;32;20257;-61
2020/12/17 01:39:17;;;;;;;45.53;27.97;;;;;;;;;;4376952;32;20277;-61
2020/12/17 01:41:42;;;;;;;44.17;25.93;;;;;;;;;;4377225;32;20340;-63
2020/12/17 01:44:08;;;;;;;39.10;24.80;;;;;;;;;;4372901;32;20226;-61
2020/12/17 01:46:33;;;;;;;40.97;22.20;;;;;;;;;;4379454;32;20662;-61
2020/12/17 01:49:02;;;;;;;44.23;24.37;;;;;;;;;;4378205;32;20226;-60
2020/12/17 01:51:28;;;;;;;48.17;27.27;;;;;;;;;;4376880;32;20582;-60
2020/12/17 01:53:55;;;;;;;49.50;28.27;;;;;;;;;;4376240;32;20252;-59
2020/12/17 01:56:24;;;;;;;49.57;28.00;;;;;;;;;;4365199;32;20541;-60
2020/12/17 01:58:53;;;;;;;44.30;27.93;;;;;;;;;;4372355;32;20713;-60
2020/12/17 02:01:23;;;;;;;49.53;30.37;;;;;;;;;;4376843;32;20243;-61
2020/12/17 02:03:48;;;;;;;57.60;34.17;;;;;;;;;;4374795;32;20226;-62
2020/12/17 02:06:14;;;;;;;52.53;32.63;;;;;;;;;;4370881;32;20284;-62
2020/12/17 02:08:39;;;;;;;41.50;27.60;;;;;;;;;;4377843;32;20721;-62
2020/12/17 02:11:09;;;;;;;54.73;32.10;;;;;;;;;;4379502;32;20211;-62
2020/12/17 02:13:36;;;;;;;45.33;28.50;;;;;;;;;;4372500;32;20624;-62
2020/12/17 02:16:03;;;;;;;43.37;27.03;;;;;;;;;;4377545;32;20356;-60
2020/12/17 02:18:29;;;;;;;53.33;31.57;;;;;;;;;;4379568;32;20254;-60
2020/12/17 02:20:55;;;;;;;58.80;31.33;;;;;;;;;;4378429;32;20304;-60
2020/12/17 02:23:22;;;;;;;76.90;37.07;;;;;;;;;;4376323;32;20230;-60
2020/12/17 02:25:48;;;;;;;64.33;38.63;;;;;;;;;;4376327;32;20218;-60
2020/12/17 02:28:15;;;;;;;62.90;36.83;;;;;;;;;;4378105;32;20256;-60
2020/12/17 02:30:41;;;;;;;57.43;34.90;;;;;;;;;;4372034;32;20238;-60
2020/12/17 02:33:07;;;;;;;60.87;35.93;;;;;;;;;;4371191;32;20317;-60
2020/12/17 02:35:32;;;;;;;55.67;34.97;;;;;;;;;;4378519;32;20267;-60
2020/12/17 02:37:58;;;;;;;59.23;35.60;;;;;;;;;;4380461;32;20394;-60
2020/12/17 02:40:23;;;;;;;58.33;35.33;;;;;;;;;;4377540;32;20404;-60
2020/12/17 02:42:49;;;;;;;53.90;32.63;;;;;;;;;;4376969;32;20221;-60
2020/12/17 02:45:14;;;;;;;62.43;35.20;;;;;;;;;;4371327;32;20400;-60
2020/12/17 02:47:40;;;;;;;62.07;36.30;;;;;;;;;;4380253;32;20358;-61
2020/12/17 02:50:06;;;;;;;66.53;39.43;;;;;;;;;;4369979;32;20249;-61
2020/12/17 02:52:31;;;;;;;65.63;38.50;;;;;;;;;;4374663;32;20248;-61
2020/12/17 02:54:57;;;;;;;63.63;39.20;;;;;;;;;;4377397;32;20750;-61
2020/12/17 02:57:22;;;;;;;63.83;40.77;;;;;;;;;;4370198;32;20727;-61
2020/12/17 02:59:48;;;;;;;64.17;40.47;;;;;;;;;;4380643;32;20677;-60
2020/12/17 03:02:13;;;;;;;78.97;42.07;;;;;;;;;;4373102;32;20637;-61
2020/12/17 03:04:38;;;;;;;65.40;40.43;;;;;;;;;;4378375;32;20285;-60
2020/12/17 03:07:04;;;;;;;62.73;39.27;;;;;;;;;;4376360;32;20412;-60
2020/12/17 03:09:29;;;;;;;69.73;39.17;;;;;;;;;;4375584;32;20603;-60
2020/12/17 03:11:55;;;;;;;69.40;40.37;;;;;;;;;;4375695;32;20299;-59
2020/12/17 03:14:20;;;;;;;66.23;39.10;;;;;;;;;;4364663;32;20259;-59
2020/12/17 03:16:45;;;;;;;60.83;38.00;;;;;;;;;;4377019;32;20222;-59
2020/12/17 03:19:11;;;;;;;59.93;38.27;;;;;;;;;;4379327;32;20697;-59
2020/12/17 03:21:36;;;;;;;70.00;40.07;;;;;;;;;;4376399;32;20284;-59
2020/12/17 03:24:02;;;;;;;67.57;39.47;;;;;;;;;;4376950;32;20306;-61
2020/12/17 03:26:27;;;;;;;63.20;39.27;;;;;;;;;;4374916;32;20256;-60
2020/12/17 03:28:53;;;;;;;63.70;37.83;;;;;;;;;;4377980;32;20683;-59
2020/12/17 03:31:18;;;;;;;65.87;37.63;;;;;;;;;;4380101;32;20257;-60
2020/12/17 03:33:44;;;;;;;66.30;39.57;;;;;;;;;;4379859;32;20455;-59
2020/12/17 03:36:09;;;;;;;70.83;39.60;;;;;;;;;;4369904;32;20363;-60
2020/12/17 03:38:35;;;;;;;66.40;39.53;;;;;;;;;;4377579;32;20297;-57
2020/12/17 03:41:00;;;;;;;71.20;41.13;;;;;;;;;;4378742;32;20320;-59
2020/12/17 03:43:26;;;;;;;74.93;43.47;;;;;;;;;;4375953;32;20313;-59
2020/12/17 03:45:51;;;;;;;73.23;43.33;;;;;;;;;;4379860;32;20236;-58
2020/12/17 03:48:17;;;;;;;70.03;41.73;;;;;;;;;;4377568;32;20279;-58
2020/12/17 03:50:42;;;;;;;65.83;40.67;;;;;;;;;;4376728;32;20263;-58
2020/12/17 03:53:07;;;;;;;73.93;43.03;;;;;;;;;;4379200;32;20264;-58
2020/12/17 03:55:33;;;;;;;71.00;43.37;;;;;;;;;;4379766;32;20267;-58
2020/12/17 03:57:58;;;;;;;71.23;43.50;;;;;;;;;;4379415;32;20358;-58
2020/12/17 04:00:24;;;;;;;72.80;43.60;;;;;;;;;;4376949;32;20198;-58
2020/12/17 04:02:49;;;;;;;74.23;43.07;;;;;;;;;;4377653;32;20537;-58
2020/12/17 04:05:14;;;;;;;83.63;48.13;;;;;;;;;;4379619;32;21312;-58
2020/12/17 04:07:40;;;;;;;102.20;55.83;;;;;;;;;;4379480;32;20246;-58
2020/12/17 04:10:05;;;;;;;104.00;60.77;;;;;;;;;;4378579;32;20218;-58
2020/12/17 04:12:31;;;;;;;108.23;62.17;;;;;;;;;;4377162;32;20292;-58
2020/12/17 04:14:56;;;;;;;99.33;56.53;;;;;;;;;;4377989;32;20356;-58
2020/12/17 04:17:22;;;;;;;108.17;58.23;;;;;;;;;;4379358;32;20307;-58
2020/12/17 04:19:47;;;;;;;102.47;61.87;;;;;;;;;;4375692;32;20283;-58
2020/12/17 04:22:16;;;;;;;107.43;63.20;;;;;;;;;;4377585;32;20602;-57
2020/12/17 04:24:46;;;;;;;107.30;62.03;;;;;;;;;;4381277;32;20315;-58
2020/12/17 04:27:11;;;;;;;85.43;54.63;;;;;;;;;;4377871;32;20742;-58
2020/12/17 04:29:37;;;;;;;87.13;51.00;;;;;;;;;;4375354;32;20308;-58
2020/12/17 04:32:03;;;;;;;85.83;49.47;;;;;;;;;;4379414;32;20723;-57
2020/12/17 04:34:32;;;;;;;86.70;52.63;;;;;;;;;;4371180;32;20236;-57
2020/12/17 04:36:58;;;;;;;84.50;54.17;;;;;;;;;;4372532;32;20322;-58
2020/12/17 04:39:24;;;;;;;82.80;50.47;;;;;;;;;;4366802;32;20690;-57
2020/12/17 04:41:52;;;;;;;77.03;44.30;;;;;;;;;;4373968;32;20265;-57
2020/12/17 04:44:18;;;;;;;76.33;45.27;;;;;;;;;;4377761;32;20295;-56
2020/12/17 04:46:54;;;;;;;75.50;43.73;;;;;;;;;;4374381;32;20214;-60
2020/12/17 04:49:23;;;;;;;76.73;44.10;;;;;;;;;;4382337;32;20284;-61
2020/12/17 04:51:55;;;;;;;75.40;45.03;;;;;;;;;;4374809;32;20214;-59
2020/12/17 04:54:21;;;;;;;83.83;48.40;;;;;;;;;;4379958;32;20546;-59
2020/12/17 04:56:57;;;;;;;84.93;50.97;;;;;;;;;;4384331;32;20618;-59
2020/12/17 04:59:42;;;;;;;78.87;48.03;;;;;;;;;;4381432;32;20358;-59
2020/12/17 05:02:08;;;;;;;83.23;49.50;;;;;;;;;;4380511;32;20267;-58
2020/12/17 05:04:42;;;;;;;86.70;52.50;;;;;;;;;;4385127;32;20238;-58
2020/12/17 05:07:10;;;;;;;80.37;46.87;;;;;;;;;;4374081;32;20233;-58
2020/12/17 05:09:37;;;;;;;72.13;44.40;;;;;;;;;;4383696;32;20620;-58
2020/12/17 05:12:03;;;;;;;80.90;47.90;;;;;;;;;;4381689;32;20241;-58
2020/12/17 05:14:29;;;;;;;78.17;46.77;;;;;;;;;;4384192;32;20291;-57
2020/12/17 05:16:58;;;;;;;88.03;52.97;;;;;;;;;;4383036;32;20808;-57
2020/12/17 05:19:24;;;;;;;94.30;53.27;;;;;;;;;;4377705;32;20940;-57
2020/12/17 05:21:50;;;;;;;80.87;49.97;;;;;;;;;;4378401;32;20335;-57
2020/12/17 05:24:15;;;;;;;71.20;41.80;;;;;;;;;;4384952;32;20407;-57
2020/12/17 05:26:41;;;;;;;66.70;39.33;;;;;;;;;;4374007;32;20359;-57
2020/12/17 05:29:06;;;;;;;67.93;39.27;;;;;;;;;;4378931;32;20257;-57
2020/12/17 05:31:33;;;;;;;61.37;38.73;;;;;;;;;;4377911;32;20249;-59
2020/12/17 05:34:03;;;;;;;63.30;40.27;;;;;;;;;;4377758;32;20296;-58
2020/12/17 05:36:30;;;;;;;66.47;40.97;;;;;;;;;;4377116;32;20237;-59
2020/12/17 05:38:56;;;;;;;73.60;43.67;;;;;;;;;;4374641;32;20742;-59
2020/12/17 05:41:22;;;;;;;68.00;42.83;;;;;;;;;;4380252;32;20242;-59
2020/12/17 05:43:48;;;;;;;77.70;46.57;;;;;;;;;;4379586;32;20284;-59
2020/12/17 05:46:33;;;;;;;75.60;47.30;;;;;;;;;;4376177;32;20603;-58
2020/12/17 05:49:08;;;;;;;78.53;48.30;;;;;;;;;;4376218;32;20248;-59
2020/12/17 05:51:34;;;;;;;87.27;51.60;;;;;;;;;;4383418;32;20209;-59
2020/12/17 05:53:59;;;;;;;77.83;47.40;;;;;;;;;;4380198;32;20261;-59
2020/12/17 05:56:26;;;;;;;79.30;48.87;;;;;;;;;;4374190;32;20309;-58
2020/12/17 05:58:51;;;;;;;85.03;50.17;;;;;;;;;;4376741;32;20257;-58
2020/12/17 06:01:17;;;;;;;90.93;51.23;;;;;;;;;;4384381;32;20707;-58
2020/12/17 06:03:46;;;;;;;117.07;63.13;;;;;;;;;;4383361;32;20317;-59
2020/12/17 06:06:11;;;;;;;142.13;77.47;;;;;;;;;;4376659;32;20252;-59
2020/12/17 06:08:39;;;;;;;115.67;65.40;;;;;;;;;;4375720;32;20597;-59
2020/12/17 06:11:06;;;;;;;96.43;59.43;;;;;;;;;;4383223;32;20368;-58
2020/12/17 06:13:35;;;;;;;102.50;62.27;;;;;;;;;;4379177;32;20707;-61
2020/12/17 06:16:05;;;;;;;98.30;56.03;;;;;;;;;;4373141;32;20222;-59
2020/12/17 06:18:44;;;;;;;101.53;58.20;;;;;;;;;;4378086;32;20650;-59
2020/12/17 06:21:11;;;;;;;98.80;57.77;;;;;;;;;;4382733;32;20304;-59
2020/12/17 06:23:37;;;;;;;102.60;59.63;;;;;;;;;;4382616;32;20633;-59
2020/12/17 06:26:07;;;;;;;94.70;60.83;;;;;;;;;;4379172;32;20297;-61
2020/12/17 06:28:52;;;;;;;104.83;60.60;;;;;;;;;;4377983;32;20586;-60
2020/12/17 06:31:30;;;;;;;114.37;69.23;;;;;;;;;;4383590;32;20213;-60
2020/12/17 06:34:04;;;;;;;109.53;64.60;;;;;;;;;;4383408;32;20936;-59
2020/12/17 06:36:45;;;;;;;108.10;63.93;;;;;;;;;;4384948;32;20283;-60
2020/12/17 06:39:11;;;;;;;108.33;65.60;;;;;;;;;;4380235;32;20726;-59
2020/12/17 06:41:37;;;;;;;108.33;65.33;;;;;;;;;;4375364;32;20242;-63
2020/12/17 06:44:25;;;;;;;115.87;76.30;;;;;;;;;;4357743;32;20284;-64
2020/12/17 06:47:02;;;;;;;104.73;63.43;;;;;;;;;;4368159;32;20260;-61
2020/12/17 06:49:30;;;;;;;111.30;59.50;;;;;;;;;;4374411;32;20242;-62
2020/12/17 06:52:06;;;;;;;115.57;62.13;;;;;;;;;;4381024;32;20616;-65
2020/12/17 06:54:31;;;;;;;99.57;62.50;;;;;;;;;;4379538;32;20695;-69
2020/12/17 06:57:16;;;;;;;108.57;68.30;;;;;;;;;;4378338;32;20229;-65
2020/12/17 07:00:02;;;;;;;117.13;72.30;;;;;;;;;;4375650;32;20301;-62
2020/12/17 07:02:39;;;;;;;115.07;72.60;;;;;;;;;;4374060;32;20445;-65
2020/12/17 07:05:04;;;;;;;109.57;69.53;;;;;;;;;;4373315;32;20364;-66
2020/12/17 07:07:43;;;;;;;104.10;64.60;;;;;;;;;;4373144;32;20367;-64
2020/12/17 07:10:24;;;;;;;112.63;63.10;;;;;;;;;;4369275;32;20245;-65
2020/12/17 07:12:50;;;;;;;92.13;52.77;;;;;;;;;;4378092;32;20252;-63
2020/12/17 07:15:36;;;;;;;95.27;59.17;;;;;;;;;;4381811;32;20372;-66
2020/12/17 07:18:21;;;;;;;99.57;57.40;;;;;;;;;;4381869;32;20243;-66
2020/12/17 07:20:52;;;;;;;112.57;61.73;;;;;;;;;;4371698;32;20264;-65
2020/12/17 07:23:19;;;;;;;100.07;58.93;;;;;;;;;;4374953;32;20360;-66
2020/12/17 07:25:48;;;;;;;99.00;60.93;;;;;;;;;;4379568;32;20715;-67
2020/12/17 07:28:14;;;;;;;120.33;67.97;;;;;;;;;;4383900;32;20290;-67
2020/12/17 07:30:53;;;;;;;117.40;71.27;;;;;;;;;;4372893;32;20359;-66
2020/12/17 07:33:36;;;;;;;122.80;74.63;;;;;;;;;;4377286;32;20213;-66
2020/12/17 07:36:03;;;;;;;115.70;72.10;;;;;;;;;;4377117;32;20272;-67
2020/12/17 07:38:29;;;;;;;113.20;64.00;;;;;;;;;;4372794;32;20209;-66
2020/12/17 07:40:55;;;;;;;123.80;69.27;;;;;;;;;;4374525;32;20810;-66
2020/12/17 07:43:24;;;;;;;150.20;81.73;;;;;;;;;;4374358;32;20595;-66
2020/12/17 07:45:54;;;;;;;129.33;75.70;;;;;;;;;;4377489;32;20210;-65
2020/12/17 07:48:54;;;;;;;124.13;73.43;;;;;;;;;;4374822;32;20736;-59
2020/12/17 07:51:19;;;;;;;125.13;72.37;;;;;;;;;;4376843;32;20209;-65
2020/12/17 07:53:47;;;;;;;124.27;71.87;;;;;;;;;;4383407;32;20678;-64
2020/12/17 07:56:13;;;;;;;127.20;73.30;;;;;;;;;;4378689;32;20232;-63
2020/12/17 07:58:40;;;;;;;124.47;75.07;;;;;;;;;;4361234;32;20230;-62
2020/12/17 08:01:06;;;;;;;119.87;68.73;;;;;;;;;;4375035;32;20277;-64
2020/12/17 08:03:45;;;;;;;114.17;75.20;;;;;;;;;;4386050;32;20230;-67
2020/12/17 08:06:13;;;;;;;115.83;66.40;;;;;;;;;;4386384;32;20334;-67
2020/12/17 08:08:39;;;;;;;121.17;79.67;;;;;;;;;;4385120;32;20261;-68
2020/12/17 08:11:06;;;;;;;117.83;74.27;;;;;;;;;;4385832;32;20662;-64
2020/12/17 08:13:32;;;;;;;131.03;77.70;;;;;;;;;;4378517;32;20715;-60
2020/12/17 08:15:59;;;;;;;124.30;74.83;;;;;;;;;;4382841;32;20232;-60
2020/12/17 08:18:30;;;;;;;107.73;65.40;;;;;;;;;;4377992;32;20238;-59
2020/12/17 08:21:01;;;;;;;111.37;64.93;;;;;;;;;;4376542;32;20315;-59
2020/12/17 08:23:28;;;;;;;103.00;64.77;;;;;;;;;;4382571;32;20248;-59
2020/12/17 08:25:53;;;;;;;93.40;62.20;;;;;;;;;;4375758;32;20348;-60
2020/12/17 08:28:20;;;;;;;101.23;63.63;;;;;;;;;;4372668;32;20663;-59
2020/12/17 08:30:45;;;;;;;96.73;58.17;;;;;;;;;;4376108;32;20725;-59
2020/12/17 08:33:11;;;;;;;79.73;52.27;;;;;;;;;;4374802;32;20387;-59
2020/12/17 08:35:36;;;;;;;91.10;57.73;;;;;;;;;;4381337;32;20296;-59
2020/12/17 08:38:08;;;;;;;88.97;54.60;;;;;;;;;;4376934;32;20331;-67
2020/12/17 08:40:34;;;;;;;95.87;53.60;;;;;;;;;;4369556;32;20241;-66
2020/12/17 08:43:09;;;;;;;79.00;46.83;;;;;;;;;;4382717;32;20210;-66
2020/12/17 08:45:37;;;;;;;62.33;37.43;;;;;;;;;;4372690;32;20789;-68
2020/12/17 08:48:05;;;;;;;56.63;34.03;;;;;;;;;;4373848;32;20254;-67
2020/12/17 08:50:34;;;;;;;100.33;61.97;;;;;;;;;;4376917;32;20606;-66
2020/12/17 08:52:59;;;;;;;91.43;54.33;;;;;;;;;;4376535;32;20300;-66
2020/12/17 08:55:24;;;;;;;136.97;87.13;;;;;;;;;;4386091;32;20623;-66
2020/12/17 08:58:01;;;;;;;56.77;39.13;;;;;;;;;;4385614;32;20352;-66
2020/12/17 09:00:29;;;;;;;89.80;53.60;;;;;;;;;;4364671;32;20328;-66
2020/12/17 09:02:59;;;;;;;77.10;45.57;;;;;;;;;;4369773;32;20328;-66
2020/12/17 09:05:24;;;;;;;71.53;42.60;;;;;;;;;;4384278;32;20210;-65
2020/12/17 09:07:52;;;;;;;68.83;40.90;;;;;;;;;;4381127;32;20257;-66
2020/12/17 09:10:18;;;;;;;48.20;30.93;;;;;;;;;;4382885;32;20241;-66
2020/12/17 09:12:44;;;;;;;38.60;25.63;;;;;;;;;;4382304;32;20672;-66
2020/12/17 09:15:12;;;;;;;34.37;25.87;;;;;;;;;;4377067;32;20414;-67
2020/12/17 09:17:37;;;;;;;38.03;26.63;;;;;;;;;;4376212;32;20237;-67
2020/12/17 09:20:17;;;;;;;31.23;21.53;;;;;;;;;;4362219;32;20289;-67
2020/12/17 09:22:43;;;;;;;25.23;20.00;;;;;;;;;;4346286;32;20341;-67
2020/12/17 09:25:09;;;;;;;28.47;18.17;;;;;;;;;;4349185;32;20226;-68
2020/12/17 09:27:36;;;;;;;28.70;19.13;;;;;;;;;;4350168;32;20328;-67
2020/12/17 09:30:14;;;;;;;36.13;20.10;;;;;;;;;;4347842;32;20718;-67
2020/12/17 09:32:55;;;;;;;26.20;16.53;;;;;;;;;;4353563;32;20234;-66
2020/12/17 09:35:22;;;;;;;21.93;16.37;;;;;;;;;;4347784;32;20334;-67
2020/12/17 09:38:01;;;;;;;27.13;18.33;;;;;;;;;;4349860;32;20226;-67
2020/12/17 09:40:27;;;;;;;17.77;14.67;;;;;;;;;;4350866;32;20777;-66
2020/12/17 09:43:04;;;;;;;24.20;14.77;;;;;;;;;;4355420;32;20211;-67
2020/12/17 09:45:33;;;;;;;25.37;17.33;;;;;;;;;;4354636;32;20786;-67
2020/12/17 09:47:59;;;;;;;24.07;17.50;;;;;;;;;;4353909;32;20344;-67
2020/12/17 09:50:25;;;;;;;26.80;19.27;;;;;;;;;;4350982;32;20237;-66
2020/12/17 09:52:50;;;;;;;26.60;18.20;;;;;;;;;;4345110;32;20243;-59
2020/12/17 09:55:16;;;;;;;24.53;17.17;;;;;;;;;;4345492;32;20815;-60
2020/12/17 09:57:47;;;;;;;25.83;17.40;;;;;;;;;;4350208;32;20226;-60
2020/12/17 10:00:14;;;;;;;26.17;19.00;;;;;;;;;;4349472;32;20238;-60
2020/12/17 10:02:41;;;;;;;19.20;14.60;;;;;;;;;;4352889;32;20234;-60
2020/12/17 10:05:08;;;;;;;18.47;14.33;;;;;;;;;;4351919;32;20856;-59
2020/12/17 10:07:34;;;;;;;24.47;16.53;;;;;;;;;;4349855;32;20218;-59
2020/12/17 10:09:59;;;;;;;29.53;15.00;;;;;;;;;;4351615;32;20226;-60
2020/12/17 10:12:25;;;;;;;23.30;15.47;;;;;;;;;;4349058;32;20365;-60
2020/12/17 10:14:50;;;;;;;23.10;16.70;;;;;;;;;;4349489;32;20241;-60
2020/12/17 10:17:16;;;;;;;32.90;18.07;;;;;;;;;;4349671;32;20270;-59
2020/12/17 10:19:41;;;;;;;37.73;21.40;;;;;;;;;;4372825;32;20302;-61
2020/12/17 10:22:07;;;;;;;24.87;16.00;;;;;;;;;;4381943;32;20238;-60
2020/12/17 10:24:32;;;;;;;26.00;17.53;;;;;;;;;;4372080;32;20368;-55
2020/12/17 10:27:00;;;;;;;27.53;16.00;;;;;;;;;;4380877;32;20218;-57
2020/12/17 10:29:25;;;;;;;21.37;14.67;;;;;;;;;;4378645;32;20698;-61
2020/12/17 10:31:51;;;;;;;22.37;15.80;;;;;;;;;;4364761;32;20222;-58
2020/12/17 10:34:17;;;;;;;30.33;18.30;;;;;;;;;;4382891;32;20268;-59
2020/12/17 10:36:43;;;;;;;25.17;16.90;;;;;;;;;;4381414;32;20209;-59
2020/12/17 10:39:09;;;;;;;24.27;15.53;;;;;;;;;;4380797;32;20214;-60
2020/12/17 10:41:36;;;;;;;23.70;14.70;;;;;;;;;;4380060;32;20653;-58
2020/12/17 10:44:02;;;;;;;19.43;13.97;;;;;;;;;;4384293;32;20269;-59
2020/12/17 10:46:28;;;;;;;20.53;16.70;;;;;;;;;;4378583;32;20248;-59
2020/12/17 10:48:53;;;;;;;20.77;14.57;;;;;;;;;;4384338;32;20316;-59
2020/12/17 10:51:19;;;;;;;21.37;14.90;;;;;;;;;;4381867;32;20307;-57
2020/12/17 10:53:44;;;;;;;20.90;13.13;;;;;;;;;;4384585;32;20324;-57
2020/12/17 10:56:11;;;;;;;24.13;15.80;;;;;;;;;;4379054;32;20365;-57
2020/12/17 10:58:40;;;;;;;20.77;14.03;;;;;;;;;;4384576;32;20335;-58
2020/12/17 11:01:05;;;;;;;22.70;13.27;;;;;;;;;;4380144;32;20766;-59
2020/12/17 11:03:31;;;;;;;18.90;13.20;;;;;;;;;;4385542;32;20225;-57
2020/12/17 11:05:56;;;;;;;20.47;13.63;;;;;;;;;;4382649;32;20236;-58
2020/12/17 11:08:26;;;;;;;20.77;14.07;;;;;;;;;;4384593;32;20237;-57
2020/12/17 11:10:52;;;;;;;18.50;11.23;;;;;;;;;;4369709;32;20316;-59
2020/12/17 11:13:18;;;;;;;21.63;14.43;;;;;;;;;;4379360;32;20271;-59
2020/12/17 11:15:44;;;;;;;18.40;13.00;;;;;;;;;;4372483;32;20214;-59
2020/12/17 11:18:10;;;;;;;18.90;13.77;;;;;;;;;;4379040;32;20305;-59
2020/12/17 11:20:35;;;;;;;21.80;14.50;;;;;;;;;;4379963;32;20381;-59
2020/12/17 11:23:02;;;;;;;19.53;16.47;;;;;;;;;;4370374;32;20582;-59
2020/12/17 11:25:27;;;;;;;25.70;18.90;;;;;;;;;;4362264;32;20233;-63
2020/12/17 11:27:53;;;;;;;25.57;20.00;;;;;;;;;;4380257;32;20697;-63
2020/12/17 11:30:18;;;;;;;41.10;25.23;;;;;;;;;;4384168;32;20297;-63
2020/12/17 11:32:43;;;;;;;32.50;23.17;;;;;;;;;;4378258;32;20682;-63
2020/12/17 11:35:09;;;;;;;36.97;23.60;;;;;;;;;;4382745;32;20323;-61
2020/12/17 11:37:34;;;;;;;27.17;20.13;;;;;;;;;;4377522;32;20289;-62
2020/12/17 11:40:00;;;;;;;28.83;17.90;;;;;;;;;;4383122;32;20248;-62
2020/12/17 11:42:27;;;;;;;23.87;16.90;;;;;;;;;;4382810;32;20641;-62
2020/12/17 11:44:53;;;;;;;28.77;21.07;;;;;;;;;;4381498;32;20372;-62
2020/12/17 11:47:18;;;;;;;34.63;21.83;;;;;;;;;;4382846;32;20218;-62
2020/12/17 11:49:44;;;;;;;32.83;21.00;;;;;;;;;;4383739;32;20260;-61
2020/12/17 11:52:09;;;;;;;26.83;21.37;;;;;;;;;;4381406;32;20213;-61
2020/12/17 11:54:34;;;;;;;32.80;21.03;;;;;;;;;;4371573;32;20742;-62
2020/12/17 11:57:00;;;;;;;30.07;21.03;;;;;;;;;;4383751;32;20308;-62
2020/12/17 11:59:28;;;;;;;30.10;21.63;;;;;;;;;;4378461;32;20468;-61
2020/12/17 12:01:53;;;;;;;33.97;22.23;;;;;;;;;;4378928;32;20221;-62
2020/12/17 12:04:19;;;;;;;49.40;28.70;;;;;;;;;;4382773;32;20451;-62
2020/12/17 12:06:47;;;;;;;36.93;24.27;;;;;;;;;;4378956;32;20377;-62
2020/12/17 12:09:18;;;;;;;33.40;24.50;;;;;;;;;;4380604;32;20248;-61
2020/12/17 12:11:43;;;;;;;42.83;29.80;;;;;;;;;;4382009;32;20284;-61
2020/12/17 12:14:10;;;;;;;40.13;28.73;;;;;;;;;;4382144;32;20335;-61
2020/12/17 12:16:36;;;;;;;42.90;28.13;;;;;;;;;;4383001;32;20339;-61
2020/12/17 12:19:01;;;;;;;33.53;24.40;;;;;;;;;;4386219;32;20265;-62
2020/12/17 12:21:26;;;;;;;36.97;25.60;;;;;;;;;;4387825;32;20217;-61
2020/12/17 12:23:52;;;;;;;35.10;28.23;;;;;;;;;;4382520;32;20218;-61
2020/12/17 12:26:17;;;;;;;139.37;104.50;;;;;;;;;;4385305;32;20298;-61
2020/12/17 12:28:43;;;;;;;51.27;39.07;;;;;;;;;;4378469;32;20233;-61
2020/12/17 12:31:09;;;;;;;40.20;29.67;;;;;;;;;;4383957;32;20656;-62
2020/12/17 12:33:34;;;;;;;35.30;24.27;;;;;;;;;;4384928;32;20297;-62
2020/12/17 12:36:00;;;;;;;24.97;17.30;;;;;;;;;;4384367;32;20261;-61
2020/12/17 12:38:25;;;;;;;20.53;15.37;;;;;;;;;;4384911;32;20331;-62
2020/12/17 12:40:51;;;;;;;34.67;21.13;;;;;;;;;;4384535;32;20257;-62
2020/12/17 12:43:16;;;;;;;31.50;21.07;;;;;;;;;;4381627;32;20659;-61
2020/12/17 12:45:43;;;;;;;22.60;17.00;;;;;;;;;;4381008;32;20638;-61
2020/12/17 12:48:09;;;;;;;33.73;24.30;;;;;;;;;;4381787;32;20238;-62
2020/12/17 12:50:34;;;;;;;33.00;21.97;;;;;;;;;;4379754;32;20693;-62
2020/12/17 12:53:00;;;;;;;50.33;33.63;;;;;;;;;;4368366;32;20272;-61
2020/12/17 12:55:25;;;;;;;51.93;30.50;;;;;;;;;;4383879;32;20274;-62
2020/12/17 12:57:52;;;;;;;50.20;32.10;;;;;;;;;;4373271;32;20420;-62
2020/12/17 13:00:18;;;;;;;49.27;27.60;;;;;;;;;;4378132;32;20300;-62
2020/12/17 13:02:44;;;;;;;34.80;24.30;;;;;;;;;;4385309;32;20282;-62
2020/12/17 13:05:09;;;;;;;39.80;26.43;;;;;;;;;;4378883;32;20686;-62
2020/12/17 13:07:35;;;;;;;35.90;22.17;;;;;;;;;;4376725;32;20411;-61
2020/12/17 13:10:00;;;;;;;35.03;24.97;;;;;;;;;;4377045;32;20367;-62
2020/12/17 13:12:27;;;;;;;40.37;27.93;;;;;;;;;;4376995;32;20315;-62
2020/12/17 13:14:53;;;;;;;33.67;23.73;;;;;;;;;;4361696;32;20709;-62
2020/12/17 13:17:18;;;;;;;33.67;23.93;;;;;;;;;;4368360;32;20253;-62
2020/12/17 13:19:43;;;;;;;31.17;22.20;;;;;;;;;;4380993;32;20245;-62
2020/12/17 13:22:09;;;;;;;33.80;25.47;;;;;;;;;;4373625;32;20389;-63
2020/12/17 13:24:35;;;;;;;29.53;23.17;;;;;;;;;;4384007;32;20338;-62
2020/12/17 13:27:00;;;;;;;32.70;21.87;;;;;;;;;;4385287;32;20250;-63
2020/12/17 13:29:25;;;;;;;49.00;28.70;;;;;;;;;;4381479;32;20340;-62
2020/12/17 13:31:53;;;;;;;46.23;30.20;;;;;;;;;;4386393;32;20693;-61
2020/12/17 13:34:18;;;;;;;44.57;30.03;;;;;;;;;;4384696;32;20285;-61
2020/12/17 13:36:45;;;;;;;65.87;43.80;;;;;;;;;;4377002;32;20253;-62
2020/12/17 13:39:10;;;;;;;58.10;40.07;;;;;;;;;;4378110;32;20631;-62
2020/12/17 13:41:36;;;;;;;68.50;48.03;;;;;;;;;;4385549;32;20312;-62
2020/12/17 13:44:01;;;;;;;46.20;32.53;;;;;;;;;;4377816;32;20730;-62
2020/12/17 13:46:27;;;;;;;43.23;29.67;;;;;;;;;;4384009;32;20301;-62
2020/12/17 13:48:52;;;;;;;43.23;27.03;;;;;;;;;;4379409;32;20233;-62
2020/12/17 13:51:21;;;;;;;45.57;28.87;;;;;;;;;;4380371;32;20610;-61
2020/12/17 13:53:47;;;;;;;41.00;29.30;;;;;;;;;;4379355;32;20222;-62
2020/12/17 13:56:13;;;;;;;39.30;29.80;;;;;;;;;;4378314;32;20494;-61
2020/12/17 13:58:39;;;;;;;46.20;27.13;;;;;;;;;;4377177;32;20689;-61
2020/12/17 14:01:04;;;;;;;39.30;29.37;;;;;;;;;;4382117;32;20214;-62
2020/12/17 14:03:30;;;;;;;41.33;29.40;;;;;;;;;;4373115;32;20218;-61
2020/12/17 14:05:55;;;;;;;41.63;30.77;;;;;;;;;;4361278;32;20317;-62
2020/12/17 14:08:21;;;;;;;44.43;29.77;;;;;;;;;;4377503;32;20295;-62
2020/12/17 14:10:46;;;;;;;47.20;33.93;;;;;;;;;;4383394;32;20246;-62
2020/12/17 14:13:12;;;;;;;43.47;32.40;;;;;;;;;;4375249;32;20245;-63
2020/12/17 14:15:37;;;;;;;39.83;29.33;;;;;;;;;;4378779;32;20273;-62